sensor_id;sensor_type;location;lat;lon;timestamp;P1;durP1;ratioP1;P2;durP2;ratioP2
36989;SDS011;22898;52.102;5.776;2023-04-01T00:01:46;0.60;;;0.60;;
36989;SDS011;22898;52.102;5.776;2023-04-01T00:04:11;0.63;;;0.63;;
36989;SDS011;22898;52.102;5.776;2023-04-01T00:06:37;0.50;;;0.50;;
36989;SDS011;22898;52.102;5.776;2023-04-01T00:09:02;0.60;;;0.60;;
36989;SDS011;22898;52.102;5.776;2023-04-01T00:11:28;0.90;;;0.90;;
36989;SDS011;22898;52.102;5.776;2023-04-01T00:13:54;0.60;;;0.60;;
36989;SDS011;22898;52.102;5.776;2023-04-01T00:16:20;3.75;;;1.65;;
36989;SDS011;22898;52.102;5.776;2023-04-01T00:18:45;1.48;;;1.23;;
36989;SDS011;22898;52.102;5.776;2023-04-01T00:21:12;0.82;;;0.82;;
36989;SDS011;22898;52.102;5.776;2023-04-01T00:23:38;0.80;;;0.80;;
36989;SDS011;22898;52.102;5.776;2023-04-01T00:26:04;2.22;;;1.17;;
36989;SDS011;22898;52.102;5.776;2023-04-01T00:28:30;0.55;;;0.55;;
36989;SDS011;22898;52.102;5.776;2023-04-01T00:30:56;0.88;;;0.88;;
36989;SDS011;22898;52.102;5.776;2023-04-01T00:33:22;0.85;;;0.85;;
36989;SDS011;22898;52.102;5.776;2023-04-01T00:35:47;1.30;;;1.20;;
36989;SDS011;22898;52.102;5.776;2023-04-01T00:38:13;3.78;;;1.50;;
36989;SDS011;22898;52.102;5.776;2023-04-01T00:40:43;1.20;;;1.10;;
36989;SDS011;22898;52.102;5.776;2023-04-01T00:43:14;0.77;;;0.77;;
36989;SDS011;22898;52.102;5.776;2023-04-01T00:45:44;1.17;;;1.08;;
36989;SDS011;22898;52.102;5.776;2023-04-01T00:48:12;1.23;;;0.95;;
36989;SDS011;22898;52.102;5.776;2023-04-01T00:50:42;2.67;;;1.45;;
36989;SDS011;22898;52.102;5.776;2023-04-01T00:53:20;1.20;;;1.10;;
36989;SDS011;22898;52.102;5.776;2023-04-01T00:55:50;1.20;;;1.13;;
36989;SDS011;22898;52.102;5.776;2023-04-01T00:58:21;2.08;;;1.70;;
36989;SDS011;22898;52.102;5.776;2023-04-01T01:00:51;1.15;;;1.05;;
36989;SDS011;22898;52.102;5.776;2023-04-01T01:03:17;1.10;;;1.00;;
36989;SDS011;22898;52.102;5.776;2023-04-01T01:08:24;2.47;;;1.90;;
36989;SDS011;22898;52.102;5.776;2023-04-01T01:11:12;2.55;;;1.50;;
36989;SDS011;22898;52.102;5.776;2023-04-01T01:13:43;4.47;;;2.17;;
36989;SDS011;22898;52.102;5.776;2023-04-01T01:16:24;1.17;;;1.08;;
36989;SDS011;22898;52.102;5.776;2023-04-01T01:18:55;2.67;;;1.52;;
36989;SDS011;22898;52.102;5.776;2023-04-01T01:27:11;3.92;;;2.10;;
36989;SDS011;22898;52.102;5.776;2023-04-01T01:29:46;2.50;;;2.22;;
36989;SDS011;22898;52.102;5.776;2023-04-01T01:37:58;2.90;;;1.77;;
36989;SDS011;22898;52.102;5.776;2023-04-01T01:40:27;2.05;;;1.50;;
36989;SDS011;22898;52.102;5.776;2023-04-01T01:42:57;5.40;;;2.20;;
36989;SDS011;22898;52.102;5.776;2023-04-01T01:45:28;2.20;;;1.52;;
36989;SDS011;22898;52.102;5.776;2023-04-01T01:47:56;3.13;;;1.85;;
36989;SDS011;22898;52.102;5.776;2023-04-01T01:50:24;2.10;;;1.95;;
36989;SDS011;22898;52.102;5.776;2023-04-01T01:52:59;1.67;;;1.27;;
36989;SDS011;22898;52.102;5.776;2023-04-01T01:55:36;3.25;;;1.88;;
36989;SDS011;22898;52.102;5.776;2023-04-01T01:58:23;1.80;;;1.70;;
36989;SDS011;22898;52.102;5.776;2023-04-01T02:01:09;1.88;;;1.73;;
36989;SDS011;22898;52.102;5.776;2023-04-01T02:03:41;3.25;;;2.10;;
36989;SDS011;22898;52.102;5.776;2023-04-01T02:06:09;3.05;;;2.50;;
36989;SDS011;22898;52.102;5.776;2023-04-01T02:11:57;2.20;;;1.83;;
36989;SDS011;22898;52.102;5.776;2023-04-01T02:19:33;1.95;;;1.17;;
36989;SDS011;22898;52.102;5.776;2023-04-01T02:22:05;2.67;;;2.13;;
36989;SDS011;22898;52.102;5.776;2023-04-01T02:24:37;1.13;;;1.13;;
36989;SDS011;22898;52.102;5.776;2023-04-01T02:27:04;1.95;;;1.70;;
36989;SDS011;22898;52.102;5.776;2023-04-01T02:29:30;1.45;;;1.35;;
36989;SDS011;22898;52.102;5.776;2023-04-01T02:31:56;1.83;;;1.73;;
36989;SDS011;22898;52.102;5.776;2023-04-01T02:34:23;1.10;;;1.00;;
36989;SDS011;22898;52.102;5.776;2023-04-01T02:36:49;1.38;;;1.27;;
36989;SDS011;22898;52.102;5.776;2023-04-01T02:39:16;2.03;;;1.42;;
36989;SDS011;22898;52.102;5.776;2023-04-01T02:41:42;2.25;;;1.45;;
36989;SDS011;22898;52.102;5.776;2023-04-01T02:44:10;1.58;;;1.48;;
36989;SDS011;22898;52.102;5.776;2023-04-01T02:46:38;1.58;;;1.48;;
36989;SDS011;22898;52.102;5.776;2023-04-01T02:49:03;1.23;;;1.00;;
36989;SDS011;22898;52.102;5.776;2023-04-01T02:51:30;1.17;;;1.08;;
36989;SDS011;22898;52.102;5.776;2023-04-01T02:53:55;1.77;;;1.33;;
36989;SDS011;22898;52.102;5.776;2023-04-01T02:56:21;5.55;;;1.83;;
36989;SDS011;22898;52.102;5.776;2023-04-01T02:58:46;1.88;;;1.60;;
36989;SDS011;22898;52.102;5.776;2023-04-01T03:01:12;1.50;;;1.00;;
36989;SDS011;22898;52.102;5.776;2023-04-01T03:03:38;0.82;;;0.82;;
36989;SDS011;22898;52.102;5.776;2023-04-01T03:06:05;0.93;;;0.73;;
36989;SDS011;22898;52.102;5.776;2023-04-01T03:08:35;1.63;;;1.48;;
36989;SDS011;22898;52.102;5.776;2023-04-01T03:11:01;1.70;;;1.38;;
36989;SDS011;22898;52.102;5.776;2023-04-01T03:13:26;1.33;;;0.95;;
36989;SDS011;22898;52.102;5.776;2023-04-01T03:15:52;0.93;;;0.90;;
36989;SDS011;22898;52.102;5.776;2023-04-01T03:18:18;1.23;;;0.95;;
36989;SDS011;22898;52.102;5.776;2023-04-01T03:20:44;0.52;;;0.52;;
36989;SDS011;22898;52.102;5.776;2023-04-01T03:23:10;1.08;;;1.08;;
36989;SDS011;22898;52.102;5.776;2023-04-01T03:25:35;1.13;;;1.02;;
36989;SDS011;22898;52.102;5.776;2023-04-01T03:28:01;2.78;;;1.25;;
36989;SDS011;22898;52.102;5.776;2023-04-01T03:30:27;0.80;;;0.73;;
36989;SDS011;22898;52.102;5.776;2023-04-01T03:32:54;1.05;;;0.95;;
36989;SDS011;22898;52.102;5.776;2023-04-01T03:35:20;1.27;;;0.65;;
36989;SDS011;22898;52.102;5.776;2023-04-01T03:37:46;1.40;;;1.27;;
36989;SDS011;22898;52.102;5.776;2023-04-01T03:40:11;0.70;;;0.70;;
36989;SDS011;22898;52.102;5.776;2023-04-01T03:42:37;0.90;;;0.88;;
36989;SDS011;22898;52.102;5.776;2023-04-01T03:45:03;2.67;;;1.80;;
36989;SDS011;22898;52.102;5.776;2023-04-01T03:47:30;0.55;;;0.55;;
36989;SDS011;22898;52.102;5.776;2023-04-01T03:49:55;1.00;;;1.00;;
36989;SDS011;22898;52.102;5.776;2023-04-01T03:52:21;1.95;;;1.05;;
36989;SDS011;22898;52.102;5.776;2023-04-01T03:54:47;0.47;;;0.47;;
36989;SDS011;22898;52.102;5.776;2023-04-01T03:57:12;0.80;;;0.80;;
36989;SDS011;22898;52.102;5.776;2023-04-01T03:59:38;2.15;;;0.95;;
36989;SDS011;22898;52.102;5.776;2023-04-01T04:02:03;0.98;;;0.88;;
36989;SDS011;22898;52.102;5.776;2023-04-01T04:04:29;0.93;;;0.93;;
36989;SDS011;22898;52.102;5.776;2023-04-01T04:06:56;2.50;;;1.13;;
36989;SDS011;22898;52.102;5.776;2023-04-01T04:09:22;1.00;;;1.00;;
36989;SDS011;22898;52.102;5.776;2023-04-01T04:11:48;1.38;;;1.02;;
36989;SDS011;22898;52.102;5.776;2023-04-01T04:14:14;0.80;;;0.80;;
36989;SDS011;22898;52.102;5.776;2023-04-01T04:16:40;0.82;;;0.82;;
36989;SDS011;22898;52.102;5.776;2023-04-01T04:19:05;1.45;;;0.93;;
36989;SDS011;22898;52.102;5.776;2023-04-01T04:21:31;0.47;;;0.47;;
36989;SDS011;22898;52.102;5.776;2023-04-01T04:23:57;0.63;;;0.63;;
36989;SDS011;22898;52.102;5.776;2023-04-01T04:26:24;1.58;;;1.40;;
36989;SDS011;22898;52.102;5.776;2023-04-01T04:28:50;0.80;;;0.75;;
36989;SDS011;22898;52.102;5.776;2023-04-01T04:31:23;0.65;;;0.65;;
36989;SDS011;22898;52.102;5.776;2023-04-01T04:33:50;1.67;;;1.57;;
36989;SDS011;22898;52.102;5.776;2023-04-01T04:36:16;2.40;;;1.30;;
36989;SDS011;22898;52.102;5.776;2023-04-01T04:38:42;1.60;;;1.50;;
36989;SDS011;22898;52.102;5.776;2023-04-01T04:41:14;1.08;;;1.02;;
36989;SDS011;22898;52.102;5.776;2023-04-01T04:43:47;1.52;;;1.23;;
36989;SDS011;22898;52.102;5.776;2023-04-01T04:46:15;0.95;;;0.95;;
36989;SDS011;22898;52.102;5.776;2023-04-01T04:48:40;2.42;;;1.55;;
36989;SDS011;22898;52.102;5.776;2023-04-01T04:51:06;1.70;;;1.60;;
36989;SDS011;22898;52.102;5.776;2023-04-01T04:53:32;1.65;;;1.55;;
36989;SDS011;22898;52.102;5.776;2023-04-01T04:55:57;1.48;;;1.35;;
36989;SDS011;22898;52.102;5.776;2023-04-01T04:58:23;0.88;;;0.88;;
36989;SDS011;22898;52.102;5.776;2023-04-01T05:00:48;1.55;;;1.13;;
36989;SDS011;22898;52.102;5.776;2023-04-01T05:03:14;0.93;;;0.90;;
36989;SDS011;22898;52.102;5.776;2023-04-01T05:05:47;2.08;;;1.88;;
36989;SDS011;22898;52.102;5.776;2023-04-01T05:08:13;1.25;;;1.13;;
36989;SDS011;22898;52.102;5.776;2023-04-01T05:10:39;1.05;;;0.98;;
36989;SDS011;22898;52.102;5.776;2023-04-01T05:13:04;1.35;;;1.30;;
36989;SDS011;22898;52.102;5.776;2023-04-01T05:15:30;2.58;;;2.17;;
36989;SDS011;22898;52.102;5.776;2023-04-01T05:17:55;2.05;;;1.95;;
36989;SDS011;22898;52.102;5.776;2023-04-01T05:20:21;1.63;;;1.50;;
36989;SDS011;22898;52.102;5.776;2023-04-01T05:22:47;2.20;;;1.75;;
36989;SDS011;22898;52.102;5.776;2023-04-01T05:25:12;1.92;;;1.73;;
36989;SDS011;22898;52.102;5.776;2023-04-01T05:27:38;1.67;;;1.58;;
36989;SDS011;22898;52.102;5.776;2023-04-01T05:30:04;1.48;;;1.38;;
36989;SDS011;22898;52.102;5.776;2023-04-01T05:32:30;3.58;;;2.35;;
36989;SDS011;22898;52.102;5.776;2023-04-01T05:34:56;3.85;;;2.13;;
36989;SDS011;22898;52.102;5.776;2023-04-01T05:37:22;1.42;;;1.05;;
36989;SDS011;22898;52.102;5.776;2023-04-01T05:39:47;3.22;;;2.90;;
36989;SDS011;22898;52.102;5.776;2023-04-01T05:42:13;3.92;;;2.90;;
36989;SDS011;22898;52.102;5.776;2023-04-01T05:44:41;3.33;;;2.35;;
36989;SDS011;22898;52.102;5.776;2023-04-01T05:47:07;4.82;;;3.30;;
36989;SDS011;22898;52.102;5.776;2023-04-01T05:49:33;2.72;;;1.92;;
36989;SDS011;22898;52.102;5.776;2023-04-01T05:51:59;4.13;;;2.10;;
36989;SDS011;22898;52.102;5.776;2023-04-01T05:54:24;1.20;;;1.10;;
36989;SDS011;22898;52.102;5.776;2023-04-01T05:56:50;1.98;;;1.83;;
36989;SDS011;22898;52.102;5.776;2023-04-01T05:59:16;1.52;;;1.42;;
36989;SDS011;22898;52.102;5.776;2023-04-01T06:01:41;1.98;;;1.75;;
36989;SDS011;22898;52.102;5.776;2023-04-01T06:04:10;2.40;;;2.17;;
36989;SDS011;22898;52.102;5.776;2023-04-01T06:06:41;2.08;;;1.85;;
36989;SDS011;22898;52.102;5.776;2023-04-01T06:09:19;2.28;;;1.70;;
36989;SDS011;22898;52.102;5.776;2023-04-01T06:15:37;1.13;;;1.13;;
36989;SDS011;22898;52.102;5.776;2023-04-01T06:20:39;4.30;;;1.77;;
36989;SDS011;22898;52.102;5.776;2023-04-01T06:28:55;2.70;;;2.20;;
36989;SDS011;22898;52.102;5.776;2023-04-01T06:34:14;4.50;;;2.92;;
36989;SDS011;22898;52.102;5.776;2023-04-01T06:36:50;3.97;;;2.95;;
36989;SDS011;22898;52.102;5.776;2023-04-01T06:42:30;2.05;;;1.65;;
36989;SDS011;22898;52.102;5.776;2023-04-01T06:45:37;3.15;;;1.95;;
36989;SDS011;22898;52.102;5.776;2023-04-01T06:48:30;2.28;;;1.88;;
36989;SDS011;22898;52.102;5.776;2023-04-01T06:54:02;2.10;;;1.90;;
36989;SDS011;22898;52.102;5.776;2023-04-01T06:56:31;2.25;;;1.20;;
36989;SDS011;22898;52.102;5.776;2023-04-01T06:58:58;1.65;;;1.15;;
36989;SDS011;22898;52.102;5.776;2023-04-01T07:01:32;2.28;;;1.90;;
36989;SDS011;22898;52.102;5.776;2023-04-01T07:04:10;1.45;;;1.30;;
36989;SDS011;22898;52.102;5.776;2023-04-01T07:06:51;1.40;;;1.27;;
36989;SDS011;22898;52.102;5.776;2023-04-01T07:09:22;3.42;;;1.02;;
36989;SDS011;22898;52.102;5.776;2023-04-01T07:11:53;1.88;;;1.73;;
36989;SDS011;22898;52.102;5.776;2023-04-01T07:14:26;1.48;;;1.38;;
36989;SDS011;22898;52.102;5.776;2023-04-01T07:19:32;1.98;;;1.48;;
36989;SDS011;22898;52.102;5.776;2023-04-01T07:22:05;1.77;;;1.48;;
36989;SDS011;22898;52.102;5.776;2023-04-01T07:24:49;0.82;;;0.82;;
36989;SDS011;22898;52.102;5.776;2023-04-01T07:27:16;2.42;;;1.45;;
36989;SDS011;22898;52.102;5.776;2023-04-01T07:29:41;1.85;;;1.75;;
36989;SDS011;22898;52.102;5.776;2023-04-01T07:32:09;1.75;;;1.17;;
36989;SDS011;22898;52.102;5.776;2023-04-01T07:43:22;1.27;;;1.17;;
36989;SDS011;22898;52.102;5.776;2023-04-01T07:46:06;1.67;;;1.45;;
36989;SDS011;22898;52.102;5.776;2023-04-01T07:54:36;1.10;;;1.00;;
36989;SDS011;22898;52.102;5.776;2023-04-01T07:57:21;2.25;;;1.45;;
36989;SDS011;22898;52.102;5.776;2023-04-01T08:00:08;0.93;;;0.88;;
36989;SDS011;22898;52.102;5.776;2023-04-01T08:05:25;0.55;;;0.52;;
36989;SDS011;22898;52.102;5.776;2023-04-01T08:10:34;0.60;;;0.60;;
36989;SDS011;22898;52.102;5.776;2023-04-01T08:13:30;0.40;;;0.40;;
36989;SDS011;22898;52.102;5.776;2023-04-01T08:19:04;0.40;;;0.40;;
36989;SDS011;22898;52.102;5.776;2023-04-01T08:21:39;0.40;;;0.40;;
36989;SDS011;22898;52.102;5.776;2023-04-01T08:24:22;0.30;;;0.30;;
36989;SDS011;22898;52.102;5.776;2023-04-01T08:26:53;0.87;;;0.83;;
36989;SDS011;22898;52.102;5.776;2023-04-01T08:29:46;0.55;;;0.55;;
36989;SDS011;22898;52.102;5.776;2023-04-01T08:32:18;4.20;;;0.60;;
36989;SDS011;22898;52.102;5.776;2023-04-01T08:34:55;0.50;;;0.50;;
36989;SDS011;22898;52.102;5.776;2023-04-01T08:37:43;0.50;;;0.50;;
36989;SDS011;22898;52.102;5.776;2023-04-01T08:40:25;0.55;;;0.55;;
36989;SDS011;22898;52.102;5.776;2023-04-01T08:43:15;0.40;;;0.40;;
36989;SDS011;22898;52.102;5.776;2023-04-01T08:51:36;0.50;;;0.50;;
36989;SDS011;22898;52.102;5.776;2023-04-01T08:54:45;0.57;;;0.57;;
36989;SDS011;22898;52.102;5.776;2023-04-01T09:00:15;0.60;;;0.60;;
36989;SDS011;22898;52.102;5.776;2023-04-01T09:14:30;0.52;;;0.50;;
36989;SDS011;22898;52.102;5.776;2023-04-01T09:38:47;0.95;;;0.93;;
36989;SDS011;22898;52.102;5.776;2023-04-01T09:41:48;0.88;;;0.88;;
36989;SDS011;22898;52.102;5.776;2023-04-01T09:44:51;1.42;;;1.33;;
36989;SDS011;22898;52.102;5.776;2023-04-01T09:47:45;0.77;;;0.77;;
36989;SDS011;22898;52.102;5.776;2023-04-01T09:50:44;1.42;;;1.33;;
36989;SDS011;22898;52.102;5.776;2023-04-01T09:53:48;1.50;;;1.20;;
36989;SDS011;22898;52.102;5.776;2023-04-01T10:02:05;1.27;;;1.17;;
36989;SDS011;22898;52.102;5.776;2023-04-01T10:05:04;0.70;;;0.70;;
36989;SDS011;22898;52.102;5.776;2023-04-01T10:13:17;0.90;;;0.90;;
36989;SDS011;22898;52.102;5.776;2023-04-01T10:19:10;3.63;;;1.67;;
36989;SDS011;22898;52.102;5.776;2023-04-01T10:32:56;0.95;;;0.90;;
36989;SDS011;22898;52.102;5.776;2023-04-01T10:47:01;0.70;;;0.57;;
36989;SDS011;22898;52.102;5.776;2023-04-01T10:55:42;0.45;;;0.45;;
36989;SDS011;22898;52.102;5.776;2023-04-01T11:07:26;0.70;;;0.70;;
36989;SDS011;22898;52.102;5.776;2023-04-01T11:21:59;0.57;;;0.57;;
36989;SDS011;22898;52.102;5.776;2023-04-01T11:27:42;0.43;;;0.43;;
36989;SDS011;22898;52.102;5.776;2023-04-01T11:33:24;0.63;;;0.63;;
36989;SDS011;22898;52.102;5.776;2023-04-01T11:36:04;0.75;;;0.75;;
36989;SDS011;22898;52.102;5.776;2023-04-01T11:41:22;0.75;;;0.70;;
36989;SDS011;22898;52.102;5.776;2023-04-01T11:46:33;0.70;;;0.70;;
36989;SDS011;22898;52.102;5.776;2023-04-01T12:07:04;0.90;;;0.63;;
36989;SDS011;22898;52.102;5.776;2023-04-01T12:12:54;0.50;;;0.50;;
36989;SDS011;22898;52.102;5.776;2023-04-01T12:15:54;0.77;;;0.77;;
36989;SDS011;22898;52.102;5.776;2023-04-01T12:21:22;0.75;;;0.75;;
36989;SDS011;22898;52.102;5.776;2023-04-01T12:24:04;1.35;;;1.20;;
36989;SDS011;22898;52.102;5.776;2023-04-01T12:38:21;1.60;;;1.50;;
36989;SDS011;22898;52.102;5.776;2023-04-01T12:46:27;2.13;;;0.80;;
36989;SDS011;22898;52.102;5.776;2023-04-01T12:52:09;0.80;;;0.80;;
36989;SDS011;22898;52.102;5.776;2023-04-01T12:54:44;0.85;;;0.85;;
36989;SDS011;22898;52.102;5.776;2023-04-01T12:57:46;1.08;;;0.98;;
36989;SDS011;22898;52.102;5.776;2023-04-01T13:12:01;1.33;;;1.15;;
36989;SDS011;22898;52.102;5.776;2023-04-01T13:17:54;0.50;;;0.50;;
36989;SDS011;22898;52.102;5.776;2023-04-01T13:20:43;0.55;;;0.55;;
36989;SDS011;22898;52.102;5.776;2023-04-01T13:28:29;0.40;;;0.40;;
36989;SDS011;22898;52.102;5.776;2023-04-01T13:39:42;0.47;;;0.47;;
36989;SDS011;22898;52.102;5.776;2023-04-01T13:45:26;1.63;;;1.40;;
36989;SDS011;22898;52.102;5.776;2023-04-01T13:50:58;3.22;;;1.65;;
36989;SDS011;22898;52.102;5.776;2023-04-01T13:56:24;2.30;;;1.58;;
36989;SDS011;22898;52.102;5.776;2023-04-01T14:10:43;1.27;;;1.17;;
36989;SDS011;22898;52.102;5.776;2023-04-01T14:13:23;2.15;;;1.48;;
36989;SDS011;22898;52.102;5.776;2023-04-01T14:22:05;0.73;;;0.50;;
36989;SDS011;22898;52.102;5.776;2023-04-01T14:27:24;0.40;;;0.40;;
36989;SDS011;22898;52.102;5.776;2023-04-01T14:32:56;0.40;;;0.40;;
36989;SDS011;22898;52.102;5.776;2023-04-01T14:49:23;0.68;;;0.68;;
36989;SDS011;22898;52.102;5.776;2023-04-01T14:52:46;0.75;;;0.60;;
36989;SDS011;22898;52.102;5.776;2023-04-01T14:55:01;1.50;;;1.17;;
36989;SDS011;22898;52.102;5.776;2023-04-01T14:57:57;0.80;;;0.80;;
36989;SDS011;22898;52.102;5.776;2023-04-01T15:00:25;0.93;;;0.88;;
36989;SDS011;22898;52.102;5.776;2023-04-01T15:03:14;0.60;;;0.60;;
36989;SDS011;22898;52.102;5.776;2023-04-01T15:05:45;0.82;;;0.82;;
36989;SDS011;22898;52.102;5.776;2023-04-01T15:08:33;0.90;;;0.90;;
36989;SDS011;22898;52.102;5.776;2023-04-01T15:11:33;2.13;;;1.35;;
36989;SDS011;22898;52.102;5.776;2023-04-01T15:14:17;1.58;;;1.10;;
36989;SDS011;22898;52.102;5.776;2023-04-01T15:16:59;2.17;;;0.77;;
36989;SDS011;22898;52.102;5.776;2023-04-01T15:22:51;0.75;;;0.75;;
36989;SDS011;22898;52.102;5.776;2023-04-01T15:28:28;1.10;;;1.05;;
36989;SDS011;22898;52.102;5.776;2023-04-01T15:31:16;0.80;;;0.80;;
36989;SDS011;22898;52.102;5.776;2023-04-01T15:50:43;0.73;;;0.73;;
36989;SDS011;22898;52.102;5.776;2023-04-01T16:01:38;1.13;;;1.05;;
36989;SDS011;22898;52.102;5.776;2023-04-01T16:07:10;1.23;;;1.13;;
36989;SDS011;22898;52.102;5.776;2023-04-01T16:10:17;0.88;;;0.85;;
36989;SDS011;22898;52.102;5.776;2023-04-01T16:13:37;1.13;;;1.02;;
36989;SDS011;22898;52.102;5.776;2023-04-01T16:16:44;1.27;;;1.17;;
36989;SDS011;22898;52.102;5.776;2023-04-01T16:24:20;1.00;;;0.82;;
36989;SDS011;22898;52.102;5.776;2023-04-01T16:32:59;2.13;;;1.45;;
36989;SDS011;22898;52.102;5.776;2023-04-01T16:43:39;0.55;;;0.55;;
36989;SDS011;22898;52.102;5.776;2023-04-01T16:46:21;1.77;;;1.33;;
36989;SDS011;22898;52.102;5.776;2023-04-01T16:52:13;1.52;;;1.27;;
36989;SDS011;22898;52.102;5.776;2023-04-01T16:57:48;0.80;;;0.80;;
36989;SDS011;22898;52.102;5.776;2023-04-01T17:00:19;2.47;;;1.25;;
36989;SDS011;22898;52.102;5.776;2023-04-01T17:03:24;1.58;;;1.15;;
36989;SDS011;22898;52.102;5.776;2023-04-01T17:11:54;1.75;;;1.48;;
36989;SDS011;22898;52.102;5.776;2023-04-01T17:14:45;1.08;;;0.98;;
36989;SDS011;22898;52.102;5.776;2023-04-01T17:17:28;0.85;;;0.80;;
36989;SDS011;22898;52.102;5.776;2023-04-01T17:32:22;1.13;;;1.02;;
36989;SDS011;22898;52.102;5.776;2023-04-01T17:43:06;1.30;;;1.20;;
36989;SDS011;22898;52.102;5.776;2023-04-01T17:45:59;1.45;;;1.35;;
36989;SDS011;22898;52.102;5.776;2023-04-01T17:51:28;2.03;;;1.08;;
36989;SDS011;22898;52.102;5.776;2023-04-01T17:59:44;1.27;;;1.17;;
36989;SDS011;22898;52.102;5.776;2023-04-01T18:02:47;0.55;;;0.55;;
36989;SDS011;22898;52.102;5.776;2023-04-01T18:10:48;1.25;;;1.15;;
36989;SDS011;22898;52.102;5.776;2023-04-01T18:19:40;1.15;;;1.05;;
36989;SDS011;22898;52.102;5.776;2023-04-01T18:22:21;1.13;;;0.93;;
36989;SDS011;22898;52.102;5.776;2023-04-01T18:32:34;1.50;;;1.40;;
36989;SDS011;22898;52.102;5.776;2023-04-01T18:35:34;0.85;;;0.85;;
36989;SDS011;22898;52.102;5.776;2023-04-01T18:41:12;0.93;;;0.90;;
36989;SDS011;22898;52.102;5.776;2023-04-01T18:46:46;1.67;;;1.27;;
36989;SDS011;22898;52.102;5.776;2023-04-01T18:52:19;1.45;;;1.35;;
36989;SDS011;22898;52.102;5.776;2023-04-01T18:57:49;0.70;;;0.70;;
36989;SDS011;22898;52.102;5.776;2023-04-01T19:02:58;1.77;;;1.05;;
36989;SDS011;22898;52.102;5.776;2023-04-01T19:05:33;0.60;;;0.60;;
36989;SDS011;22898;52.102;5.776;2023-04-01T19:08:27;2.00;;;1.35;;
36989;SDS011;22898;52.102;5.776;2023-04-01T19:18:52;0.93;;;0.93;;
36989;SDS011;22898;52.102;5.776;2023-04-01T19:21:41;1.08;;;1.00;;
36989;SDS011;22898;52.102;5.776;2023-04-01T19:30:32;0.98;;;0.95;;
36989;SDS011;22898;52.102;5.776;2023-04-01T19:32:45;0.52;;;0.52;;
36989;SDS011;22898;52.102;5.776;2023-04-01T19:35:42;0.88;;;0.88;;
36989;SDS011;22898;52.102;5.776;2023-04-01T19:38:16;0.85;;;0.85;;
36989;SDS011;22898;52.102;5.776;2023-04-01T19:46:25;1.10;;;1.05;;
36989;SDS011;22898;52.102;5.776;2023-04-01T19:54:58;1.13;;;1.02;;
36989;SDS011;22898;52.102;5.776;2023-04-01T19:57:54;0.88;;;0.88;;
36989;SDS011;22898;52.102;5.776;2023-04-01T20:08:43;2.00;;;1.80;;
36989;SDS011;22898;52.102;5.776;2023-04-01T20:14:01;2.28;;;2.05;;
36989;SDS011;22898;52.102;5.776;2023-04-01T20:19:20;2.17;;;1.98;;
36989;SDS011;22898;52.102;5.776;2023-04-01T20:21:54;2.20;;;1.67;;
36989;SDS011;22898;52.102;5.776;2023-04-01T20:24:24;2.38;;;1.70;;
36989;SDS011;22898;52.102;5.776;2023-04-01T20:27:04;1.95;;;1.65;;
36989;SDS011;22898;52.102;5.776;2023-04-01T20:35:20;2.38;;;1.83;;
36989;SDS011;22898;52.102;5.776;2023-04-01T20:40:49;2.08;;;1.88;;
36989;SDS011;22898;52.102;5.776;2023-04-01T20:45:48;1.65;;;1.50;;
36989;SDS011;22898;52.102;5.776;2023-04-01T20:48:39;2.53;;;2.28;;
36989;SDS011;22898;52.102;5.776;2023-04-01T20:51:34;2.05;;;1.67;;
36989;SDS011;22898;52.102;5.776;2023-04-01T20:57:11;1.55;;;1.45;;
36989;SDS011;22898;52.102;5.776;2023-04-01T21:00:03;1.92;;;1.35;;
36989;SDS011;22898;52.102;5.776;2023-04-01T21:03:10;1.23;;;0.95;;
36989;SDS011;22898;52.102;5.776;2023-04-01T21:08:32;1.85;;;1.75;;
36989;SDS011;22898;52.102;5.776;2023-04-01T21:13:44;1.20;;;1.20;;
36989;SDS011;22898;52.102;5.776;2023-04-01T21:16:37;2.03;;;1.83;;
36989;SDS011;22898;52.102;5.776;2023-04-01T21:24:59;1.83;;;1.73;;
36989;SDS011;22898;52.102;5.776;2023-04-01T21:27:55;1.83;;;1.73;;
36989;SDS011;22898;52.102;5.776;2023-04-01T21:39:34;1.17;;;1.08;;
36989;SDS011;22898;52.102;5.776;2023-04-01T21:42:17;1.13;;;0.95;;
36989;SDS011;22898;52.102;5.776;2023-04-01T21:45:10;1.88;;;1.30;;
36989;SDS011;22898;52.102;5.776;2023-04-01T21:50:47;2.28;;;1.70;;
36989;SDS011;22898;52.102;5.776;2023-04-01T21:53:52;1.92;;;1.83;;
36989;SDS011;22898;52.102;5.776;2023-04-01T21:56:57;1.73;;;1.63;;
36989;SDS011;22898;52.102;5.776;2023-04-01T22:00:07;1.73;;;1.50;;
36989;SDS011;22898;52.102;5.776;2023-04-01T22:06:03;1.40;;;1.30;;
36989;SDS011;22898;52.102;5.776;2023-04-01T22:19:30;1.55;;;1.45;;
36989;SDS011;22898;52.102;5.776;2023-04-01T22:27:52;1.40;;;1.30;;
36989;SDS011;22898;52.102;5.776;2023-04-01T22:30:33;2.55;;;1.20;;
36989;SDS011;22898;52.102;5.776;2023-04-01T22:33:22;2.47;;;2.05;;
36989;SDS011;22898;52.102;5.776;2023-04-01T22:41:56;4.20;;;1.48;;
36989;SDS011;22898;52.102;5.776;2023-04-01T22:44:55;1.17;;;1.08;;
36989;SDS011;22898;52.102;5.776;2023-04-01T22:55:51;2.35;;;2.15;;
36989;SDS011;22898;52.102;5.776;2023-04-01T22:58:19;3.67;;;3.15;;
36989;SDS011;22898;52.102;5.776;2023-04-01T23:00:58;3.05;;;2.17;;
36989;SDS011;22898;52.102;5.776;2023-04-01T23:03:28;2.60;;;2.13;;
36989;SDS011;22898;52.102;5.776;2023-04-01T23:05:58;2.35;;;2.05;;
36989;SDS011;22898;52.102;5.776;2023-04-01T23:11:51;2.43;;;1.90;;
36989;SDS011;22898;52.102;5.776;2023-04-01T23:16:46;1.85;;;1.75;;
36989;SDS011;22898;52.102;5.776;2023-04-01T23:24:53;2.45;;;1.52;;
36989;SDS011;22898;52.102;5.776;2023-04-01T23:27:31;4.15;;;2.15;;
36989;SDS011;22898;52.102;5.776;2023-04-01T23:30:52;1.92;;;1.77;;
36989;SDS011;22898;52.102;5.776;2023-04-01T23:36:00;4.00;;;2.67;;
36989;SDS011;22898;52.102;5.776;2023-04-01T23:38:46;1.23;;;0.95;;
36989;SDS011;22898;52.102;5.776;2023-04-01T23:41:24;3.55;;;3.05;;
36989;SDS011;22898;52.102;5.776;2023-04-01T23:44:00;2.00;;;1.80;;
36989;SDS011;22898;52.102;5.776;2023-04-01T23:46:31;1.88;;;1.65;;
36989;SDS011;22898;52.102;5.776;2023-04-01T23:49:00;3.25;;;2.95;;
36989;SDS011;22898;52.102;5.776;2023-04-01T23:51:28;4.70;;;3.80;;
36989;SDS011;22898;52.102;5.776;2023-04-01T23:54:10;4.05;;;2.45;;
36989;SDS011;22898;52.102;5.776;2023-04-01T23:56:51;2.33;;;2.03;;
36989;SDS011;22898;52.102;5.776;2023-04-01T23:59:38;3.38;;;2.95;;
